createdAt,value
2018-06-05T00:01:35.534Z,19.53
2018-06-05T00:04:03.696Z,22.53
2018-06-05T00:06:32.054Z,18.57
2018-06-05T00:09:00.203Z,23.10
2018-06-05T00:11:28.279Z,20.77
2018-06-05T00:13:56.318Z,19.50
2018-06-05T00:16:23.834Z,18.07
2018-06-05T00:18:51.507Z,23.57
2018-06-05T00:21:19.543Z,23.77
2018-06-05T00:23:58.020Z,22.40
2018-06-05T00:26:27.398Z,22.23
2018-06-05T00:28:57.323Z,21.60
2018-06-05T00:31:25.082Z,22.80
2018-06-05T00:33:52.770Z,24.60
2018-06-05T00:36:20.500Z,41.07
2018-06-05T00:38:48.131Z,23.23
2018-06-05T00:41:15.695Z,21.10
2018-06-05T00:43:43.462Z,25.03
2018-06-05T00:46:11.231Z,27.30
2018-06-05T00:48:39.046Z,33.40
2018-06-05T00:51:18.207Z,26.27
2018-06-05T00:53:46.388Z,25.67
2018-06-05T00:56:14.058Z,23.60
2018-06-05T00:58:41.761Z,25.47
2018-06-05T01:01:09.559Z,81.57
2018-06-05T01:03:37.649Z,25.87
2018-06-05T01:06:06.243Z,25.63
2018-06-05T01:08:34.882Z,25.83
2018-06-05T01:11:03.133Z,26.60
2018-06-05T01:13:31.734Z,34.70
2018-06-05T01:15:59.769Z,28.37
2018-06-05T01:18:29.168Z,27.60
2018-06-05T01:20:59.351Z,30.07
2018-06-05T01:23:27.460Z,34.33
2018-06-05T01:25:55.475Z,34.37
2018-06-05T01:28:24.657Z,31.07
2018-06-05T01:30:52.754Z,29.40
2018-06-05T01:33:21.934Z,34.47
2018-06-05T01:35:50.681Z,33.30
2018-06-05T01:38:18.398Z,31.30
2018-06-05T01:40:45.957Z,35.30
2018-06-05T01:43:13.863Z,31.03
2018-06-05T01:45:42.081Z,34.10
2018-06-05T01:48:10.017Z,33.43
2018-06-05T01:50:37.679Z,37.63
2018-06-05T01:53:05.480Z,33.23
2018-06-05T01:55:35.643Z,35.43
2018-06-05T01:58:05.498Z,39.40
2018-06-05T02:00:33.615Z,34.20
2018-06-05T02:03:02.095Z,37.13
2018-06-05T02:05:30.098Z,33.43
2018-06-05T02:07:58.276Z,38.30
2018-06-05T02:10:26.924Z,30.97
2018-06-05T02:12:55.962Z,40.00
2018-06-05T02:15:23.742Z,37.23
2018-06-05T02:17:53.099Z,38.27
2018-06-05T02:20:25.192Z,32.37
2018-06-05T02:22:58.126Z,34.20
2018-06-05T02:25:26.223Z,49.20
2018-06-05T02:27:54.241Z,31.97
2018-06-05T02:30:21.847Z,37.27
2018-06-05T02:32:49.765Z,34.50
2018-06-05T02:35:17.474Z,34.83
2018-06-05T02:37:46.280Z,41.17
2018-06-05T02:40:14.068Z,35.67
2018-06-05T02:42:41.689Z,38.40
2018-06-05T02:45:09.597Z,37.93
2018-06-05T02:47:37.243Z,40.73
2018-06-05T02:50:05.172Z,40.77
2018-06-05T02:52:33.318Z,39.13
2018-06-05T02:55:02.580Z,41.10
2018-06-05T02:57:30.589Z,39.43
2018-06-05T02:59:58.803Z,39.90
2018-06-05T03:02:28.118Z,43.80
2018-06-05T03:04:56.230Z,37.53
2018-06-05T03:07:24.340Z,42.23
2018-06-05T03:09:52.042Z,40.07
2018-06-05T03:12:19.657Z,40.00
2018-06-05T03:14:47.676Z,39.83
2018-06-05T03:17:17.505Z,44.37
2018-06-05T03:19:45.857Z,55.50
2018-06-05T03:22:15.881Z,39.30
2018-06-05T03:24:43.667Z,42.00
2018-06-05T03:27:11.527Z,37.73
2018-06-05T03:29:39.334Z,51.33
2018-06-05T03:32:07.402Z,40.70
2018-06-05T03:34:36.702Z,45.20
2018-06-05T03:37:04.656Z,47.07
2018-06-05T03:39:32.701Z,40.83
2018-06-05T03:42:01.064Z,46.80
2018-06-05T03:47:15.515Z,46.50
2018-06-05T03:49:47.027Z,42.80
2018-06-05T03:52:14.838Z,47.23
2018-06-05T03:54:48.742Z,42.90
2018-06-05T03:57:16.506Z,44.10
2018-06-05T03:59:44.907Z,46.80
2018-06-05T04:02:12.846Z,42.00
2018-06-05T04:04:40.512Z,39.67
2018-06-05T04:07:08.610Z,53.27
2018-06-05T04:09:36.763Z,52.30
2018-06-05T04:12:05.139Z,44.03
2018-06-05T04:14:33.710Z,45.53
2018-06-05T04:17:01.744Z,42.80
2018-06-05T04:19:35.494Z,49.13
2018-06-05T04:22:04.488Z,45.70
2018-06-05T04:24:35.435Z,48.53
2018-06-05T04:27:04.116Z,51.50
2018-06-05T04:29:32.608Z,45.90
2018-06-05T04:32:03.728Z,77.23
2018-06-05T04:34:33.761Z,51.00
2018-06-05T04:37:02.138Z,56.03
2018-06-05T04:39:31.315Z,58.93
2018-06-05T04:42:00.643Z,50.97
2018-06-05T04:44:30.512Z,49.13
2018-06-05T04:46:59.332Z,48.00
2018-06-05T04:49:29.040Z,49.27
2018-06-05T04:52:19.500Z,48.03
2018-06-05T04:54:51.361Z,46.20
2018-06-05T04:57:20.482Z,50.00
2018-06-05T04:59:51.627Z,53.07
2018-06-05T05:02:21.568Z,47.47
2018-06-05T05:04:49.640Z,53.90
2018-06-05T05:07:22.707Z,45.70
2018-06-05T05:09:52.718Z,57.57
2018-06-05T05:12:20.610Z,49.00
2018-06-05T05:14:48.372Z,53.27
2018-06-05T05:17:16.012Z,55.13
2018-06-05T05:19:47.600Z,62.07
2018-06-05T05:22:15.657Z,51.17
2018-06-05T05:24:43.422Z,51.83
2018-06-05T05:27:13.473Z,51.60
2018-06-05T05:29:55.803Z,56.87
2018-06-05T05:32:27.500Z,52.83
2018-06-05T05:34:57.340Z,42.20
2018-06-05T05:37:25.781Z,43.60
2018-06-05T05:39:53.483Z,47.37
2018-06-05T05:42:21.625Z,60.10
2018-06-05T05:44:50.427Z,53.67
2018-06-05T05:47:18.275Z,51.83
2018-06-05T05:49:57.555Z,55.83
2018-06-05T05:52:29.138Z,52.20
2018-06-05T05:54:57.057Z,64.43
2018-06-05T05:57:31.758Z,49.20
2018-06-05T05:59:59.781Z,58.70
2018-06-05T06:02:30.327Z,55.87
2018-06-05T06:05:01.217Z,46.33
2018-06-05T06:07:30.350Z,56.37
2018-06-05T06:10:08.580Z,54.20
2018-06-05T06:12:37.177Z,52.20
2018-06-05T06:15:05.106Z,68.53
2018-06-05T06:17:32.920Z,48.33
2018-06-05T06:20:13.358Z,43.73
2018-06-05T06:22:41.151Z,49.13
2018-06-05T06:25:08.789Z,54.03
2018-06-05T06:27:40.142Z,47.67
2018-06-05T06:30:11.502Z,41.97
2018-06-05T06:32:39.210Z,50.83
2018-06-05T06:35:07.572Z,47.60
2018-06-05T06:37:35.192Z,51.67
2018-06-05T06:40:04.116Z,46.93
2018-06-05T06:42:37.579Z,56.60
2018-06-05T06:45:25.963Z,49.17
2018-06-05T06:47:53.704Z,52.93
2018-06-05T06:50:21.370Z,50.90
2018-06-05T06:52:50.083Z,48.63
2018-06-05T06:55:25.289Z,66.17
2018-06-05T06:57:52.878Z,67.47
2018-06-05T07:00:22.768Z,51.87
2018-06-05T07:02:52.385Z,52.93
2018-06-05T07:05:24.161Z,49.00
2018-06-05T07:07:53.463Z,52.17
2018-06-05T07:10:22.045Z,66.77
2018-06-05T07:12:50.230Z,58.33
2018-06-05T07:15:18.278Z,56.33
2018-06-05T07:17:48.340Z,62.67
2018-06-05T07:20:16.224Z,54.47
2018-06-05T07:22:46.274Z,51.03
2018-06-05T07:25:14.211Z,54.63
2018-06-05T07:27:41.900Z,52.50
2018-06-05T07:30:17.092Z,46.23
2018-06-05T07:32:46.996Z,51.33
2018-06-05T07:35:14.981Z,52.23
2018-06-05T07:37:43.655Z,51.33
2018-06-05T07:40:15.621Z,53.13
2018-06-05T07:42:43.440Z,46.00
2018-06-05T07:45:13.081Z,52.47
2018-06-05T07:47:43.526Z,47.87
2018-06-05T07:50:11.255Z,41.13
2018-06-05T07:52:38.898Z,43.63
2018-06-05T07:55:06.929Z,49.03
2018-06-05T07:57:35.084Z,53.63
2018-06-05T08:00:03.918Z,44.50
2018-06-05T08:02:32.832Z,45.73
2018-06-05T08:05:00.396Z,48.33
2018-06-05T08:07:28.033Z,54.50
2018-06-05T08:09:55.669Z,43.03
2018-06-05T08:12:23.423Z,45.43
2018-06-05T08:15:04.705Z,44.80
2018-06-05T08:17:32.728Z,45.37
2018-06-05T08:20:00.448Z,46.63
2018-06-05T08:22:52.383Z,43.73
2018-06-05T08:25:20.434Z,42.80
2018-06-05T08:27:48.348Z,44.93
2018-06-05T08:30:19.215Z,37.33
2018-06-05T08:32:47.105Z,42.97
2018-06-05T08:35:15.221Z,40.30
2018-06-05T08:37:43.193Z,40.80
2018-06-05T08:40:12.862Z,33.10
2018-06-05T08:42:40.638Z,36.73
2018-06-05T08:45:11.759Z,37.60
2018-06-05T08:47:39.314Z,39.63
2018-06-05T08:53:00.377Z,34.97
2018-06-05T08:55:28.045Z,37.27
2018-06-05T08:57:55.830Z,32.73
2018-06-05T09:00:24.489Z,37.73
2018-06-05T09:02:52.325Z,37.70
2018-06-05T09:05:27.438Z,38.73
2018-06-05T09:07:55.191Z,38.33
2018-06-05T09:10:22.839Z,36.00
2018-06-05T09:12:51.039Z,33.60
2018-06-05T09:15:18.738Z,29.00
2018-06-05T09:17:46.439Z,34.77
2018-06-05T09:20:15.404Z,28.87
2018-06-05T09:22:44.923Z,37.67
2018-06-05T09:25:14.881Z,31.37
2018-06-05T09:27:49.645Z,35.87
2018-06-05T09:30:31.436Z,35.20
2018-06-05T09:33:13.281Z,24.90
2018-06-05T09:35:42.101Z,28.60
2018-06-05T09:38:12.644Z,36.93
2018-06-05T09:40:43.884Z,26.50
2018-06-05T09:43:15.794Z,34.13
2018-06-05T09:45:43.654Z,37.93
2018-06-05T09:48:11.580Z,32.60
2018-06-05T09:50:45.030Z,32.30
2018-06-05T09:53:14.077Z,37.03
2018-06-05T09:55:44.750Z,34.90
2018-06-05T09:58:13.041Z,31.00
2018-06-05T10:00:46.780Z,25.30
2018-06-05T10:03:15.656Z,32.70
2018-06-05T10:05:44.599Z,27.60
2018-06-05T10:08:16.836Z,27.47
2018-06-05T10:10:45.500Z,28.37
2018-06-05T10:13:14.832Z,31.70
2018-06-05T10:18:31.571Z,23.00
2018-06-05T10:21:00.345Z,34.10
2018-06-05T10:23:28.006Z,26.20
2018-06-05T10:25:59.008Z,26.10
2018-06-05T10:28:27.698Z,24.20
2018-06-05T10:30:59.992Z,23.93
2018-06-05T10:33:27.847Z,24.90
2018-06-05T10:35:55.533Z,23.50
2018-06-05T10:38:23.433Z,21.03
2018-06-05T10:40:52.737Z,21.70
2018-06-05T10:43:26.557Z,23.47
2018-06-05T10:45:55.731Z,23.43
2018-06-05T10:48:25.662Z,23.70
2018-06-05T10:50:54.579Z,29.13
2018-06-05T10:53:22.487Z,19.20
2018-06-05T10:55:50.151Z,21.80
2018-06-05T10:58:17.981Z,17.97
2018-06-05T11:00:47.903Z,21.13
2018-06-05T11:03:21.306Z,27.83
2018-06-05T11:05:49.533Z,14.30
2018-06-05T11:08:17.875Z,19.83
2018-06-05T11:10:51.071Z,26.27
2018-06-05T11:13:18.683Z,16.93
2018-06-05T11:15:47.236Z,18.50
2018-06-05T11:18:15.046Z,19.17
2018-06-05T11:20:42.831Z,17.33
2018-06-05T11:23:11.584Z,21.57
2018-06-05T11:25:39.297Z,14.40
2018-06-05T11:28:07.196Z,16.70
2018-06-05T11:30:35.984Z,18.23
2018-06-05T11:33:04.591Z,16.83
2018-06-05T11:35:32.784Z,17.13
2018-06-05T11:38:00.539Z,17.33
2018-06-05T11:40:31.591Z,17.00
2018-06-05T11:42:59.209Z,17.90
2018-06-05T11:45:26.926Z,13.93
2018-06-05T11:47:54.446Z,18.40
2018-06-05T11:50:22.011Z,9.57
2018-06-05T11:52:49.677Z,15.03
2018-06-05T11:55:19.416Z,11.40
2018-06-05T11:57:47.192Z,15.20
2018-06-05T12:00:15.359Z,15.13
2018-06-05T12:02:43.280Z,10.70
2018-06-05T12:05:11.200Z,12.13
2018-06-05T12:07:38.781Z,10.47
2018-06-05T12:10:06.470Z,18.63
2018-06-05T12:12:34.401Z,18.00
2018-06-05T12:15:02.492Z,19.53
2018-06-05T12:17:30.051Z,9.07
2018-06-05T12:19:57.710Z,11.30
2018-06-05T12:22:26.720Z,12.73
2018-06-05T12:24:54.338Z,11.70
2018-06-05T12:27:21.822Z,10.40
2018-06-05T12:29:49.454Z,23.80
2018-06-05T12:32:17.276Z,7.70
2018-06-05T12:34:44.932Z,7.27
2018-06-05T12:37:12.686Z,9.43
2018-06-05T12:39:41.752Z,7.27
2018-06-05T12:42:09.342Z,9.00
2018-06-05T12:44:36.915Z,7.43
2018-06-05T12:47:04.588Z,9.23
2018-06-05T12:49:32.184Z,6.73
2018-06-05T12:52:00.862Z,7.57
2018-06-05T12:54:28.553Z,8.33
2018-06-05T12:56:56.231Z,10.27
2018-06-05T12:59:23.788Z,8.17
2018-06-05T13:01:54.367Z,6.17
2018-06-05T13:04:22.324Z,5.80
2018-06-05T13:06:49.879Z,6.83
2018-06-05T13:09:17.482Z,5.17
2018-06-05T13:11:46.342Z,6.97
2018-06-05T13:14:14.413Z,6.70
2018-06-05T13:16:42.039Z,16.97
2018-06-05T13:19:10.489Z,7.43
2018-06-05T13:21:40.762Z,6.80
2018-06-05T13:24:08.345Z,9.40
2018-06-05T13:26:35.987Z,8.60
2018-06-05T13:29:07.248Z,10.73
2018-06-05T13:31:36.582Z,10.00
2018-06-05T13:34:04.278Z,7.77
2018-06-05T13:36:31.869Z,5.23
2018-06-05T13:38:59.399Z,8.87
2018-06-05T13:41:29.020Z,6.13
2018-06-05T13:44:02.824Z,7.10
2018-06-05T13:46:30.607Z,7.93
2018-06-05T13:48:58.177Z,6.77
2018-06-05T13:51:30.158Z,5.73
2018-06-05T13:53:57.730Z,5.63
2018-06-05T13:56:25.855Z,6.00
2018-06-05T13:58:55.417Z,6.27
2018-06-05T14:01:23.046Z,11.27
2018-06-05T14:03:50.577Z,6.33
2018-06-05T14:06:18.205Z,8.57
2018-06-05T14:08:46.954Z,6.30
2018-06-05T14:11:15.002Z,11.00
2018-06-05T14:13:43.506Z,9.70
2018-06-05T14:16:17.900Z,7.40
2018-06-05T14:18:45.597Z,6.87
2018-06-05T14:21:13.246Z,6.93
2018-06-05T14:23:43.697Z,10.27
2018-06-05T14:26:11.280Z,8.80
2018-06-05T14:28:38.790Z,7.97
2018-06-05T14:31:06.405Z,6.30
2018-06-05T14:33:33.987Z,9.93
2018-06-05T14:36:01.584Z,7.47
2018-06-05T14:38:29.231Z,8.40
2018-06-05T14:40:57.799Z,9.60
2018-06-05T14:43:25.439Z,7.33
2018-06-05T14:45:53.122Z,8.57
2018-06-05T14:48:20.715Z,6.13
2018-06-05T14:50:48.312Z,9.63
2018-06-05T14:53:16.131Z,6.47
2018-06-05T14:55:43.838Z,7.77
2018-06-05T14:58:11.438Z,8.27
2018-06-05T15:00:39.061Z,7.70
2018-06-05T15:03:07.219Z,8.73
2018-06-05T15:05:34.846Z,10.20
2018-06-05T15:08:06.250Z,6.03
2018-06-05T15:10:33.945Z,6.20
2018-06-05T15:13:01.624Z,8.30
2018-06-05T15:15:29.204Z,6.37
2018-06-05T15:17:57.879Z,10.23
2018-06-05T15:20:26.772Z,8.10
2018-06-05T15:22:54.362Z,7.37
2018-06-05T15:25:22.465Z,8.13
2018-06-05T15:27:50.218Z,7.30
2018-06-05T15:30:21.458Z,7.30
2018-06-05T15:32:49.077Z,7.10
2018-06-05T15:35:16.717Z,5.80
2018-06-05T15:37:45.016Z,8.13
2018-06-05T15:40:12.869Z,8.17
2018-06-05T15:42:40.459Z,10.67
2018-06-05T15:45:08.132Z,14.00
2018-06-05T15:47:36.464Z,6.00
2018-06-05T15:50:07.300Z,6.17
2018-06-05T15:52:36.611Z,5.07
2018-06-05T15:55:04.361Z,7.77
2018-06-05T15:57:33.545Z,7.80
2018-06-05T16:00:01.201Z,9.53
2018-06-05T16:02:32.286Z,5.63
2018-06-05T16:04:59.935Z,3.53
2018-06-05T16:07:27.526Z,6.03
2018-06-05T16:09:55.095Z,10.23
2018-06-05T16:12:22.787Z,3.80
2018-06-05T16:14:50.397Z,6.20
2018-06-05T16:17:18.111Z,5.20
2018-06-05T16:19:46.327Z,5.90
2018-06-05T16:22:14.620Z,5.07
2018-06-05T16:24:43.056Z,4.93
2018-06-05T16:27:10.642Z,2.60
2018-06-05T16:29:42.237Z,4.50
2018-06-05T16:32:09.880Z,3.80
2018-06-05T16:34:38.470Z,2.13
2018-06-05T16:37:06.355Z,3.60
2018-06-05T16:39:37.661Z,3.60
2018-06-05T16:42:05.330Z,2.40
2018-06-05T16:44:39.886Z,3.37
2018-06-05T16:47:07.551Z,3.13
2018-06-05T16:49:35.136Z,9.13
2018-06-05T16:52:02.764Z,4.87
2018-06-05T16:54:30.357Z,3.60
2018-06-05T16:56:57.986Z,6.60
2018-06-05T16:59:26.978Z,5.50
2018-06-05T17:01:54.547Z,3.57
2018-06-05T17:04:22.942Z,11.93
2018-06-05T17:06:58.006Z,7.57
2018-06-05T17:09:25.652Z,6.93
2018-06-05T17:11:53.214Z,9.57
2018-06-05T17:14:21.740Z,5.10
2018-06-05T17:16:49.292Z,4.00
2018-06-05T17:19:17.137Z,6.13
2018-06-05T17:21:45.052Z,5.70
2018-06-05T17:24:14.838Z,10.47
2018-06-05T17:26:42.737Z,6.40
2018-06-05T17:29:10.451Z,5.60
2018-06-05T17:31:38.323Z,8.40
2018-06-05T17:34:05.819Z,4.40
2018-06-05T17:36:34.071Z,7.83
2018-06-05T17:39:04.631Z,6.23
2018-06-05T17:41:32.393Z,9.83
2018-06-05T17:43:59.981Z,7.53
2018-06-05T17:46:28.569Z,5.70
2018-06-05T17:48:56.226Z,8.60
2018-06-05T17:51:30.043Z,5.37
2018-06-05T17:53:57.707Z,8.40
2018-06-05T17:56:25.606Z,8.30
2018-06-05T17:58:53.350Z,9.60
2018-06-05T18:01:23.136Z,8.20
2018-06-05T18:03:50.836Z,10.10
2018-06-05T18:06:19.288Z,9.97
2018-06-05T18:08:47.125Z,13.43
2018-06-05T18:11:15.347Z,10.63
2018-06-05T18:13:43.035Z,10.30
2018-06-05T18:16:10.678Z,15.93
2018-06-05T18:18:38.878Z,12.50
2018-06-05T18:21:06.564Z,16.87
2018-06-05T18:23:34.134Z,13.43
2018-06-05T18:26:01.730Z,18.20
2018-06-05T18:28:29.471Z,15.77
2018-06-05T18:30:57.274Z,15.50
2018-06-05T18:33:26.404Z,20.33
2018-06-05T18:35:54.908Z,18.80
2018-06-05T18:38:26.139Z,21.80
2018-06-05T18:40:53.782Z,16.67
2018-06-05T18:43:24.567Z,20.03
2018-06-05T18:45:52.310Z,25.77
2018-06-05T18:48:20.072Z,18.97
2018-06-05T18:50:48.659Z,16.30
2018-06-05T18:53:21.693Z,15.93
2018-06-05T18:55:49.403Z,20.70
2018-06-05T18:58:17.336Z,17.93
2018-06-05T19:00:47.066Z,17.37
2018-06-05T19:03:20.296Z,16.00
2018-06-05T19:05:52.050Z,16.23
2018-06-05T19:08:19.732Z,20.37
2018-06-05T19:10:49.087Z,14.27
2018-06-05T19:13:18.752Z,15.87
2018-06-05T19:15:46.665Z,15.33
2018-06-05T19:18:14.486Z,15.83
2018-06-05T19:20:46.060Z,14.57
2018-06-05T19:23:13.779Z,14.20
2018-06-05T19:25:41.410Z,14.87
2018-06-05T19:28:09.185Z,16.27
2018-06-05T19:30:39.427Z,16.37
2018-06-05T19:33:07.367Z,25.60
2018-06-05T19:35:34.992Z,18.67
2018-06-05T19:38:02.753Z,17.33
2018-06-05T19:40:31.307Z,16.00
2018-06-05T19:43:00.902Z,18.83
2018-06-05T19:45:28.545Z,15.00
2018-06-05T19:47:56.609Z,19.53
2018-06-05T19:50:25.653Z,20.90
2018-06-05T19:53:13.862Z,15.10
2018-06-05T19:55:41.865Z,20.67
2018-06-05T19:58:11.276Z,14.67
2018-06-05T20:00:43.636Z,17.50
2018-06-05T20:03:17.240Z,15.30
2018-06-05T20:05:45.532Z,16.37
2018-06-05T20:08:23.906Z,21.70
2018-06-05T20:10:53.958Z,15.77
2018-06-05T20:13:22.156Z,24.40
2018-06-05T20:15:50.438Z,19.67
2018-06-05T20:18:21.657Z,14.63
2018-06-05T20:20:53.643Z,18.70
2018-06-05T20:23:21.868Z,20.97
2018-06-05T20:25:50.256Z,21.07
2018-06-05T20:28:18.557Z,20.03
2018-06-05T20:30:47.609Z,20.90
2018-06-05T20:33:15.370Z,22.20
2018-06-05T20:35:42.998Z,23.40
2018-06-05T20:38:18.829Z,22.93
2018-06-05T20:40:47.684Z,19.63
2018-06-05T20:43:15.836Z,21.13
2018-06-05T20:45:48.769Z,18.23
2018-06-05T20:48:18.544Z,22.87
2018-06-05T20:50:48.747Z,24.83
2018-06-05T20:53:17.561Z,24.87
2018-06-05T20:55:47.677Z,20.33
2018-06-05T20:58:15.683Z,22.03
2018-06-05T21:00:43.555Z,31.27
2018-06-05T21:03:11.182Z,25.50
2018-06-05T21:05:38.789Z,25.40
2018-06-05T21:08:06.416Z,26.70
2018-06-05T21:10:33.977Z,23.50
2018-06-05T21:13:01.526Z,27.93
2018-06-05T21:15:30.784Z,27.73
2018-06-05T21:17:58.532Z,21.77
2018-06-05T21:20:26.160Z,25.13
2018-06-05T21:22:53.923Z,27.60
2018-06-05T21:25:22.174Z,26.50
2018-06-05T21:27:51.263Z,29.53
2018-06-05T21:30:19.096Z,28.17
2018-06-05T21:32:47.087Z,28.00
2018-06-05T21:35:15.317Z,37.23
2018-06-05T21:37:42.986Z,31.33
2018-06-05T21:40:10.574Z,31.23
2018-06-05T21:42:38.159Z,26.07
2018-06-05T21:45:05.759Z,27.73
2018-06-05T21:47:33.996Z,27.97
2018-06-05T21:50:01.906Z,28.27
2018-06-05T21:52:31.515Z,27.67
2018-06-05T21:54:59.128Z,25.63
2018-06-05T21:57:26.989Z,29.60
2018-06-05T21:59:55.599Z,34.77
2018-06-05T22:02:23.647Z,27.53
2018-06-05T22:04:52.013Z,34.00
2018-06-05T22:07:22.843Z,28.80
2018-06-05T22:09:50.683Z,27.90
2018-06-05T22:12:20.623Z,30.60
2018-06-05T22:14:48.434Z,30.20
2018-06-05T22:17:17.566Z,30.20
2018-06-05T22:19:45.602Z,27.53
2018-06-05T22:22:13.535Z,35.00
2018-06-05T22:24:41.184Z,26.90
2018-06-05T22:27:08.781Z,30.23
2018-06-05T22:29:36.274Z,23.27
2018-06-05T22:32:03.893Z,28.40
2018-06-05T22:34:31.495Z,25.73
2018-06-05T22:36:59.162Z,31.10
2018-06-05T22:39:26.860Z,29.40
2018-06-05T22:41:54.688Z,26.87
2018-06-05T22:44:22.502Z,28.03
2018-06-05T22:46:52.328Z,29.13
2018-06-05T22:49:21.164Z,27.63
2018-06-05T22:51:49.235Z,27.10
2018-06-05T22:54:17.511Z,29.40
2018-06-05T22:56:45.808Z,33.83
2018-06-05T22:59:13.712Z,30.60
2018-06-05T23:01:46.684Z,28.23
2018-06-05T23:04:14.943Z,33.13
2018-06-05T23:06:42.685Z,29.07
2018-06-05T23:09:10.244Z,31.97
2018-06-05T23:11:37.924Z,26.40
2018-06-05T23:14:05.553Z,26.17
2018-06-05T23:16:33.127Z,29.03
2018-06-05T23:19:00.784Z,25.70
2018-06-05T23:21:28.437Z,26.70
2018-06-05T23:23:56.218Z,28.80
2018-06-05T23:26:23.993Z,24.60
2018-06-05T23:28:52.135Z,29.77
2018-06-05T23:31:20.305Z,28.13
2018-06-05T23:33:49.291Z,27.50
2018-06-05T23:36:18.843Z,38.10
2018-06-05T23:38:49.624Z,29.13
2018-06-05T23:41:18.607Z,29.23
2018-06-05T23:43:47.243Z,27.00
2018-06-05T23:46:15.941Z,34.50
2018-06-05T23:48:44.365Z,30.20
2018-06-05T23:51:12.201Z,31.50
2018-06-05T23:53:40.196Z,27.57
2018-06-05T23:56:08.253Z,26.30
2018-06-05T23:58:37.342Z,32.70
